| time (UTC) | temp F | wind direction | speed knots | gust knots | rain 1hr in | rain 24hr in | rain mn in | humidity % | barometer mb |
| 20260508220012 | 62 | 261 | 3.5 | 11.3 | 0.00 | 0.00 | 0.00 | 55 | 1007.9 |
| 20260508214504 | 64 | 217 | 3.5 | 8.7 | 0.00 | 0.00 | 0.00 | 48 | 1007.9 |
| 20260508213007 | 63 | 230 | 4.3 | 12.2 | 0.00 | 0.00 | 0.00 | 49 | 1007.9 |
| 20260508211506 | 61 | 203 | 1.7 | 8.7 | 0.00 | 0.00 | 0.00 | 52 | 1008.1 |
| 20260508210007 | 61 | 193 | 2.6 | 11.3 | 0.00 | 0.00 | 0.00 | 49 | 1008.1 |
| 20260508204510 | 62 | 221 | 1.7 | 10.4 | 0.00 | 0.00 | 0.00 | 47 | 1008.2 |
| 20260508203012 | 62 | 207 | 0.9 | 7.0 | 0.00 | 0.00 | 0.00 | 52 | 1008.4 |
| 20260508201510 | 64 | 218 | 4.3 | 13.0 | 0.00 | 0.00 | 0.00 | 48 | 1008.7 |
| 20260508200008 | 65 | 267 | 3.5 | 10.4 | 0.00 | 0.00 | 0.00 | 46 | 1008.6 |
| 20260508194512 | 63 | 182 | 5.2 | 13.0 | 0.00 | 0.00 | 0.00 | 46 | 1008.9 |
| 20260508193011 | 64 | 228 | 5.2 | 13.0 | 0.00 | 0.00 | 0.00 | 45 | 1009.0 |
| 20260508191511 | 62 | 268 | 0.9 | 6.1 | 0.00 | 0.00 | 0.00 | 59 | 1009.3 |
| 20260508190011 | 62 | 153 | 0.9 | 7.0 | 0.00 | 0.00 | 0.00 | 54 | 1009.6 |
| 20260508184512 | 63 | 227 | 3.5 | 11.3 | 0.00 | 0.00 | 0.00 | 52 | 1009.8 |
| 20260508183016 | 61 | 247 | 2.6 | 7.0 | 0.00 | 0.00 | 0.00 | 55 | 1009.8 |
| 20260508181516 | 61 | 210 | 0.9 | 8.7 | 0.00 | 0.00 | 0.00 | 54 | 1010.1 |
| 20260508180011 | 62 | 236 | 3.5 | 10.4 | 0.00 | 0.00 | 0.00 | 51 | 1010.2 |
| 20260508174528 | 62 | 214 | 2.6 | 10.4 | 0.00 | 0.00 | 0.00 | 56 | 1010.4 |
| 20260508173013 | 60 | 215 | 3.5 | 9.6 | 0.00 | 0.00 | 0.00 | 53 | 1010.7 |
| 20260508171514 | 60 | 186 | 1.7 | 7.0 | 0.00 | 0.00 | 0.00 | 51 | 1011.0 |
| 20260508170018 | 60 | 182 | 1.7 | 9.6 | 0.00 | 0.00 | 0.00 | 52 | 1011.3 |
| 20260508164514 | 59 | 265 | 1.7 | 6.1 | 0.00 | 0.00 | 0.00 | 52 | 1011.7 |
| 20260508163034 | 59 | 279 | 0.9 | 7.0 | 0.00 | 0.00 | 0.00 | 54 | 1011.9 |
| 20260508161518 | 57 | 159 | 0.0 | 3.5 | 0.00 | 0.00 | 0.00 | 62 | 1011.9 |
| 20260508160024 | 57 | 163 | 1.7 | 5.2 | 0.00 | 0.00 | 0.00 | 65 | 1012.0 |
| 20260508154519 | 56 | 173 | 0.0 | 3.5 | 0.00 | 0.00 | 0.00 | 62 | 1012.0 |
| 20260508153025 | 56 | 230 | 0.0 | 3.5 | 0.00 | 0.00 | 0.00 | 64 | 1012.0 |
| 20260508151527 | 55 | 126 | 0.9 | 3.5 | 0.00 | 0.00 | 0.00 | 63 | 1012.1 |
| 20260508150027 | 55 | 11 | 0.0 | 4.3 | 0.00 | 0.00 | 0.00 | 65 | 1012.2 |
| 20260508144519 | 55 | 92 | 0.0 | 3.5 | 0.00 | 0.00 | 0.00 | 65 | 1012.2 |
| 20260508143020 | 54 | 322 | 0.9 | 4.3 | 0.00 | 0.00 | 0.00 | 67 | 1012.2 |
| 20260508141518 | 54 | 360 | 0.9 | 5.2 | 0.00 | 0.00 | 0.00 | 71 | 1012.5 |
| 20260508140004 | 52 | 5 | 0.0 | 5.2 | 0.00 | 0.00 | 0.00 | 73 | 1012.4 |
| 20260508134507 | 53 | 355 | 0.9 | 3.5 | 0.00 | 0.00 | 0.00 | 75 | 1012.5 |
| 20260508133011 | 52 | 24 | 1.7 | 4.3 | 0.00 | 0.00 | 0.00 | 77 | 1012.5 |
| 20260508131523 | 51 | 298 | 1.7 | 6.1 | 0.00 | 0.00 | 0.00 | 79 | 1012.7 |
| 20260508130019 | 50 | 360 | 0.0 | 4.3 | 0.00 | 0.00 | 0.00 | 81 | 1012.5 |
| 20260508124505 | 49 | 277 | 0.0 | 3.5 | 0.00 | 0.00 | 0.00 | 83 | 1012.4 |
| 20260508123032 | 48 | 227 | 1.7 | 5.2 | 0.00 | 0.00 | 0.00 | 84 | 1012.4 |
| 20260508121517 | 46 | 173 | 0.0 | 0.0 | 0.00 | 0.00 | 0.00 | 87 | 1012.2 |
| 20260508120016 | 44 | 173 | 0.0 | 0.0 | 0.00 | 0.00 | 0.00 | 90 | 1012.2 |
| 20260508114521 | 43 | 173 | 0.0 | 0.0 | 0.00 | 0.00 | 0.00 | 93 | 1012.1 |
| 20260508113007 | 41 | 173 | 0.0 | 0.0 | 0.00 | 0.00 | 0.00 | 94 | 1012.1 |
| 20260508111511 | 39 | 173 | 0.0 | 0.0 | 0.00 | 0.00 | 0.00 | 94 | 1011.8 |
| 20260508110013 | 39 | 173 | 0.0 | 1.7 | 0.00 | 0.00 | 0.00 | 93 | 1011.7 |
| 20260508104520 | 39 | 173 | 0.0 | 0.9 | 0.00 | 0.00 | 0.00 | 92 | 1011.6 |
| 20260508103021 | 40 | 173 | 0.0 | 0.0 | 0.00 | 0.00 | 0.00 | 93 | 1011.3 |
| 20260508101535 | 40 | 173 | 0.0 | 0.0 | 0.00 | 0.00 | 0.00 | 93 | 1011.4 |
| 20260508100014 | 40 | 173 | 0.0 | 0.9 | 0.00 | 0.00 | 0.00 | 92 | 1011.5 |
| 20260508094519 | 40 | 173 | 0.0 | 0.0 | 0.00 | 0.00 | 0.00 | 92 | 1011.6 |
| 20260508093040 | 40 | 173 | 0.0 | 0.9 | 0.00 | 0.00 | 0.00 | 93 | 1011.8 |
| 20260508091525 | 40 | 173 | 0.0 | 0.9 | 0.00 | 0.00 | 0.00 | 92 | 1011.6 |
| 20260508090034 | 39 | 173 | 0.0 | 0.0 | 0.00 | 0.00 | 0.00 | 91 | 1011.5 |
| 20260508084516 | 40 | 173 | 0.0 | 0.0 | 0.00 | 0.00 | 0.00 | 91 | 1011.4 |
| 20260508083025 | 40 | 173 | 0.0 | 0.0 | 0.00 | 0.00 | 0.00 | 90 | 1011.5 |
| 20260508081523 | 40 | 173 | 0.0 | 0.0 | 0.00 | 0.00 | 0.00 | 88 | 1011.7 |
| 20260508080034 | 41 | 173 | 0.0 | 0.0 | 0.00 | 0.00 | 0.00 | 88 | 1011.8 |
| 20260508074535 | 42 | 173 | 0.0 | 0.9 | 0.00 | 0.00 | 0.00 | 87 | 1011.7 |
| 20260508073016 | 42 | 173 | 0.0 | 1.7 | 0.00 | 0.00 | 0.00 | 89 | 1011.7 |
| 20260508071525 | 41 | 173 | 0.0 | 2.6 | 0.00 | 0.00 | 0.00 | 90 | 1011.8 |
| 20260508070026 | 40 | 173 | 0.0 | 0.0 | 0.00 | 0.00 | 0.00 | 89 | 1011.9 |
| 20260508064527 | 40 | 173 | 0.0 | 0.9 | 0.00 | 0.00 | 0.00 | 88 | 1012.0 |
| 20260508063031 | 40 | 173 | 0.0 | 0.9 | 0.00 | 0.00 | 0.00 | 87 | 1012.1 |
| 20260508061518 | 41 | 173 | 0.0 | 0.9 | 0.00 | 0.00 | 0.00 | 86 | 1012.1 |
| 20260508060022 | 41 | 173 | 0.0 | 1.7 | 0.00 | 0.00 | 0.00 | 85 | 1012.0 |
| 20260508054528 | 41 | 173 | 0.9 | 2.6 | 0.00 | 0.00 | 0.00 | 86 | 1012.1 |
| 20260508053028 | 40 | 173 | 0.0 | 1.7 | 0.00 | 0.00 | 0.00 | 89 | 1012.1 |
| 20260508051517 | 39 | 173 | 0.0 | 0.0 | 0.00 | 0.00 | 0.00 | 88 | 1012.3 |
| 20260508050022 | 40 | 173 | 0.0 | 0.0 | 0.00 | 0.00 | 0.00 | 87 | 1012.3 |
| 20260508044508 | 40 | 173 | 0.0 | 0.0 | 0.00 | 0.00 | 0.00 | 85 | 1012.2 |
| 20260508043007 | 41 | 173 | 0.0 | 0.0 | 0.00 | 0.00 | 0.00 | 83 | 1012.2 |
| 20260508041513 | 42 | 173 | 0.0 | 0.0 | 0.00 | 0.00 | 0.00 | 80 | 1012.2 |
| 20260508040020 | 44 | 173 | 0.0 | 0.9 | 0.00 | 0.00 | 0.00 | 78 | 1012.3 |
| 20260508034524 | 45 | 173 | 0.0 | 1.7 | 0.00 | 0.00 | 0.00 | 76 | 1012.3 |
| 20260508033034 | 46 | 173 | 0.0 | 2.6 | 0.00 | 0.00 | 0.00 | 74 | 1012.5 |
| 20260508031508 | 46 | 173 | 0.9 | 5.2 | 0.00 | 0.00 | 0.00 | 73 | 1012.6 |
| 20260508030014 | 47 | 223 | 0.9 | 3.5 | 0.00 | 0.00 | 0.00 | 70 | 1012.7 |
| 20260508024520 | 48 | 182 | 1.7 | 5.2 | 0.00 | 0.00 | 0.00 | 69 | 1012.9 |
| 20260508023036 | 48 | 216 | 2.6 | 6.1 | 0.00 | 0.00 | 0.00 | 68 | 1012.8 |
| 20260508021525 | 49 | 205 | 2.6 | 6.1 | 0.00 | 0.00 | 0.00 | 67 | 1012.7 |
| 20260508020009 | 49 | 229 | 2.6 | 7.8 | 0.00 | 0.00 | 0.00 | 66 | 1012.5 |
| 20260508014515 | 50 | 215 | 2.6 | 7.0 | 0.00 | 0.00 | 0.00 | 64 | 1012.8 |
| 20260508013020 | 50 | 206 | 3.5 | 10.4 | 0.00 | 0.00 | 0.00 | 60 | 1012.5 |
| 20260508011525 | 51 | 239 | 2.6 | 8.7 | 0.00 | 0.00 | 0.00 | 55 | 1012.3 |
| 20260508010037 | 51 | 217 | 0.0 | 2.6 | 0.00 | 0.00 | 0.00 | 53 | 1011.9 |
| 20260508004528 | 52 | 194 | 1.7 | 5.2 | 0.00 | 0.00 | 0.00 | 51 | 1011.8 |
| 20260508003020 | 52 | 242 | 1.7 | 6.1 | 0.00 | 0.00 | 0.00 | 48 | 1011.8 |
| 20260508001530 | 52 | 233 | 2.6 | 7.0 | 0.00 | 0.00 | 0.00 | 48 | 1011.6 |
| 20260508000025 | 53 | 259 | 0.0 | 2.6 | 0.00 | 0.00 | 0.00 | 47 | 1011.7 |
| 20260507234534 | 53 | 259 | 0.0 | 5.2 | 0.00 | 0.00 | 0.00 | 46 | 1011.7 |
| 20260507233015 | 53 | 242 | 0.0 | 3.5 | 0.00 | 0.00 | 0.00 | 46 | 1011.6 |
| 20260507231503 | 54 | 205 | 0.0 | 7.0 | 0.00 | 0.00 | 0.00 | 44 | 1011.8 |
| 20260507230005 | 55 | 216 | 1.7 | 7.8 | 0.00 | 0.00 | 0.00 | 42 | 1011.8 |
| 20260507224510 | 55 | 321 | 1.7 | 7.0 | 0.00 | 0.00 | 0.00 | 42 | 1012.0 |
| 20260507223012 | 56 | 228 | 0.9 | 7.0 | 0.00 | 0.00 | 0.00 | 42 | 1012.0 |
| 20260507221523 | 56 | 244 | 4.3 | 10.4 | 0.00 | 0.00 | 0.00 | 40 | 1011.9 |